createdAt,value
2018-06-01T00:00:05.554Z,0
2018-06-01T00:01:05.282Z,0
2018-06-01T00:02:05.547Z,0
2018-06-01T00:03:05.533Z,0
2018-06-01T00:04:05.275Z,0
2018-06-01T00:05:05.024Z,0
2018-06-01T00:06:05.522Z,0
2018-06-01T00:07:05.460Z,0
2018-06-01T00:08:05.266Z,0
2018-06-01T00:09:05.003Z,0
2018-06-01T00:10:05.592Z,0
2018-06-01T00:11:05.513Z,0
2018-06-01T00:12:05.533Z,0
2018-06-01T00:13:04.991Z,0
2018-06-01T00:14:05.252Z,0
2018-06-01T00:15:04.992Z,0
2018-06-01T00:16:05.235Z,0
2018-06-01T00:17:05.251Z,0
2018-06-01T00:18:05.503Z,0
2018-06-01T00:19:05.492Z,0
2018-06-01T00:20:05.230Z,0
2018-06-01T00:21:05.234Z,0
2018-06-01T00:22:05.211Z,0
2018-06-01T00:23:04.955Z,0
2018-06-01T00:24:05.212Z,0
2018-06-01T00:25:05.256Z,0
2018-06-01T00:26:04.950Z,0
2018-06-01T00:27:05.457Z,0
2018-06-01T00:28:04.679Z,0
2018-06-01T00:29:05.192Z,0
2018-06-01T00:30:04.930Z,0
2018-06-01T00:31:05.195Z,0
2018-06-01T00:32:05.456Z,0
2018-06-01T00:33:04.919Z,0
2018-06-01T00:34:05.179Z,0
2018-06-01T00:35:05.430Z,0
2018-06-01T00:36:04.932Z,0
2018-06-01T00:37:05.441Z,0
2018-06-01T00:38:04.904Z,0
2018-06-01T00:39:05.163Z,0
2018-06-01T00:40:04.639Z,0
2018-06-01T00:41:05.148Z,0
2018-06-01T00:42:05.152Z,0
2018-06-01T00:43:05.150Z,0
2018-06-01T00:44:05.422Z,0
2018-06-01T00:45:05.157Z,0
2018-06-01T00:46:05.138Z,0
2018-06-01T00:47:04.869Z,0
2018-06-01T00:48:04.613Z,0
2018-06-01T00:49:05.376Z,0
2018-06-01T00:50:04.900Z,0
2018-06-01T00:51:04.600Z,0
2018-06-01T00:52:05.388Z,0
2018-06-01T00:53:05.371Z,0
2018-06-01T00:54:05.370Z,0
2018-06-01T00:55:04.839Z,0
2018-06-01T00:56:05.096Z,0
2018-06-01T00:57:05.099Z,0
2018-06-01T00:58:04.888Z,0
2018-06-01T00:59:05.345Z,0
2018-06-01T01:00:05.355Z,0
2018-06-01T01:01:05.338Z,0
2018-06-01T01:02:05.073Z,0
2018-06-01T01:03:05.357Z,0
2018-06-01T01:04:05.061Z,0
2018-06-01T01:05:04.804Z,0
2018-06-01T01:06:05.063Z,0
2018-06-01T01:07:05.328Z,0
2018-06-01T01:08:05.073Z,0
2018-06-01T01:09:05.319Z,0
2018-06-01T01:10:05.045Z,0
2018-06-01T01:11:05.051Z,0
2018-06-01T01:12:04.785Z,0
2018-06-01T01:13:05.049Z,0
2018-06-01T01:14:05.285Z,0
2018-06-01T01:15:05.028Z,0
2018-06-01T01:16:05.281Z,0
2018-06-01T01:17:05.023Z,0
2018-06-01T01:18:05.014Z,0
2018-06-01T01:19:04.752Z,0
2018-06-01T01:20:04.751Z,0
2018-06-01T01:21:04.488Z,0
2018-06-01T01:22:05.005Z,0
2018-06-01T01:23:05.198Z,0
2018-06-01T01:24:05.260Z,0
2018-06-01T01:25:04.728Z,0
2018-06-01T01:26:05.319Z,0
2018-06-01T01:27:04.988Z,0
2018-06-01T01:28:04.460Z,0
2018-06-01T01:29:05.433Z,0
2018-06-01T01:30:04.996Z,0
2018-06-01T01:31:04.967Z,0
2018-06-01T01:32:04.446Z,0
2018-06-01T01:33:04.974Z,0
2018-06-01T01:34:04.701Z,0
2018-06-01T01:35:04.701Z,0
2018-06-01T01:36:04.950Z,0
2018-06-01T01:37:04.947Z,0
2018-06-01T01:38:04.948Z,0
2018-06-01T01:39:04.679Z,0
2018-06-01T01:40:04.932Z,0
2018-06-01T01:41:05.196Z,0
2018-06-01T01:42:04.932Z,0
2018-06-01T01:43:05.203Z,0
2018-06-01T01:44:05.177Z,0
2018-06-01T01:45:04.920Z,0
2018-06-01T01:46:05.179Z,0
2018-06-01T01:47:05.171Z,0
2018-06-01T01:48:05.180Z,0
2018-06-01T01:49:05.161Z,0
2018-06-01T01:50:04.903Z,0
2018-06-01T01:51:04.628Z,0
2018-06-01T01:52:04.907Z,0
2018-06-01T01:53:05.150Z,0
2018-06-01T01:54:05.146Z,0
2018-06-01T01:55:05.155Z,0
2018-06-01T01:56:04.876Z,0
2018-06-01T01:57:04.624Z,0
2018-06-01T01:58:04.873Z,0
2018-06-01T01:59:04.610Z,0
2018-06-01T02:00:04.867Z,0
2018-06-01T02:01:04.862Z,0
2018-06-01T02:02:04.854Z,0
2018-06-01T02:03:05.110Z,0
2018-06-01T02:04:04.848Z,0
2018-06-01T02:05:04.847Z,0
2018-06-01T02:06:05.099Z,0
2018-06-01T02:07:04.837Z,0
2018-06-01T02:08:05.098Z,0
2018-06-01T02:09:04.573Z,0
2018-06-01T02:10:04.839Z,0
2018-06-01T02:11:04.826Z,0
2018-06-01T02:12:05.080Z,0
2018-06-01T02:13:04.836Z,0
2018-06-01T02:14:04.837Z,0
2018-06-01T02:15:04.288Z,0
2018-06-01T02:16:04.808Z,0
2018-06-01T02:17:04.801Z,0
2018-06-01T02:18:05.056Z,0
2018-06-01T02:19:04.811Z,0
2018-06-01T02:20:04.547Z,0
2018-06-01T02:21:04.269Z,0
2018-06-01T02:22:04.793Z,0
2018-06-01T02:23:04.520Z,0
2018-06-01T02:24:04.777Z,0
2018-06-01T02:25:05.031Z,0
2018-06-01T02:26:04.798Z,0
2018-06-01T02:27:04.505Z,4
2018-06-01T02:28:04.770Z,4
2018-06-01T02:29:04.759Z,0
2018-06-01T02:30:04.760Z,4
2018-06-01T02:31:05.030Z,4
2018-06-01T02:32:05.009Z,4
2018-06-01T02:33:04.481Z,4
2018-06-01T02:34:05.005Z,4
2018-06-01T02:35:04.740Z,8
2018-06-01T02:36:04.998Z,4
2018-06-01T02:37:05.001Z,8
2018-06-01T02:38:04.987Z,8
2018-06-01T02:39:04.203Z,12
2018-06-01T02:40:04.715Z,12
2018-06-01T02:41:04.978Z,12
2018-06-01T02:42:04.961Z,12
2018-06-01T02:43:04.730Z,16
2018-06-01T02:44:04.745Z,16
2018-06-01T02:45:04.709Z,20
2018-06-01T02:46:04.958Z,20
2018-06-01T02:47:04.756Z,20
2018-06-01T02:48:04.433Z,20
2018-06-01T02:49:04.964Z,28
2018-06-01T02:50:04.934Z,28
2018-06-01T02:51:04.685Z,28
2018-06-01T02:52:04.423Z,32
2018-06-01T02:53:04.161Z,28
2018-06-01T02:54:04.412Z,32
2018-06-01T02:55:04.413Z,28
2018-06-01T02:56:04.911Z,28
2018-06-01T02:57:04.653Z,28
2018-06-01T02:58:04.667Z,32
2018-06-01T02:59:04.903Z,28
2018-06-01T03:00:04.680Z,32
2018-06-01T03:01:04.902Z,32
2018-06-01T03:02:04.641Z,28
2018-06-01T03:03:04.905Z,28
2018-06-01T03:04:04.631Z,28
2018-06-01T03:05:04.371Z,24
2018-06-01T03:06:04.643Z,24
2018-06-01T03:07:04.881Z,24
2018-06-01T03:08:04.619Z,24
2018-06-01T03:09:04.623Z,24
2018-06-01T03:10:04.634Z,24
2018-06-01T03:11:04.610Z,28
2018-06-01T03:12:04.603Z,36
2018-06-01T03:13:04.596Z,36
2018-06-01T03:14:04.603Z,44
2018-06-01T03:15:04.851Z,44
2018-06-01T03:16:04.850Z,52
2018-06-01T03:17:04.324Z,56
2018-06-01T03:18:04.603Z,64
2018-06-01T03:19:04.580Z,64
2018-06-01T03:20:04.572Z,72
2018-06-01T03:21:04.303Z,72
2018-06-01T03:22:04.316Z,72
2018-06-01T03:23:04.562Z,72
2018-06-01T03:24:04.817Z,76
2018-06-01T03:25:04.545Z,88
2018-06-01T03:26:04.362Z,100
2018-06-01T03:27:04.811Z,128
2018-06-01T03:28:04.562Z,172
2018-06-01T03:29:04.281Z,220
2018-06-01T03:30:04.797Z,276
2018-06-01T03:31:04.545Z,332
2018-06-01T03:32:04.797Z,380
2018-06-01T03:33:04.266Z,412
2018-06-01T03:34:04.788Z,396
2018-06-01T03:35:04.533Z,372
2018-06-01T03:36:04.509Z,364
2018-06-01T03:37:04.250Z,372
2018-06-01T03:38:04.509Z,428
2018-06-01T03:39:04.514Z,560
2018-06-01T03:40:04.504Z,804
2018-06-01T03:41:04.752Z,1116
2018-06-01T03:42:04.743Z,1460
2018-06-01T03:43:04.229Z,1848
2018-06-01T03:44:04.483Z,2240
2018-06-01T03:45:04.485Z,2564
2018-06-01T03:46:04.732Z,2784
2018-06-01T03:47:04.473Z,2988
2018-06-01T03:48:04.725Z,3132
2018-06-01T03:49:04.467Z,3240
2018-06-01T03:50:04.472Z,3364
2018-06-01T03:51:04.717Z,3528
2018-06-01T03:52:04.941Z,3680
2018-06-01T03:53:04.206Z,3828
2018-06-01T03:54:04.191Z,3980
2018-06-01T03:55:04.453Z,4148
2018-06-01T03:56:04.714Z,4240
2018-06-01T03:57:04.204Z,4240
2018-06-01T03:58:04.460Z,4048
2018-06-01T03:59:04.180Z,3864
2018-06-01T04:00:04.433Z,3876
2018-06-01T04:01:04.173Z,4052
2018-06-01T04:02:04.686Z,4292
2018-06-01T04:03:04.529Z,4444
2018-06-01T04:04:04.680Z,4556
2018-06-01T04:05:04.680Z,4692
2018-06-01T04:06:04.373Z,4864
2018-06-01T04:07:03.899Z,5032
2018-06-01T04:08:04.414Z,5172
2018-06-01T04:09:04.663Z,5196
2018-06-01T04:10:04.403Z,5168
2018-06-01T04:11:04.667Z,5176
2018-06-01T04:12:04.413Z,5224
2018-06-01T04:13:04.143Z,5260
2018-06-01T04:14:04.131Z,5256
2018-06-01T04:15:04.403Z,5184
2018-06-01T04:16:04.393Z,5076
2018-06-01T04:17:04.443Z,4956
2018-06-01T04:18:04.646Z,4904
2018-06-01T04:19:04.123Z,4900
2018-06-01T04:20:05.060Z,4888
2018-06-01T04:21:04.128Z,4860
2018-06-01T04:22:04.372Z,4788
2018-06-01T04:23:04.380Z,4760
2018-06-01T04:24:04.119Z,4748
2018-06-01T04:25:04.422Z,4724
2018-06-01T04:26:04.636Z,4692
2018-06-01T04:27:04.379Z,4608
2018-06-01T04:28:04.361Z,4492
2018-06-01T04:29:04.618Z,4364
2018-06-01T04:30:04.356Z,4264
2018-06-01T04:31:04.620Z,4212
2018-06-01T04:32:04.362Z,4192
2018-06-01T04:33:04.352Z,4232
2018-06-01T04:34:04.315Z,4240
2018-06-01T04:35:04.348Z,4192
2018-06-01T04:36:04.089Z,4028
2018-06-01T04:37:04.346Z,3712
2018-06-01T04:38:04.604Z,3264
2018-06-01T04:39:04.082Z,2852
2018-06-01T04:40:04.346Z,2680
2018-06-01T04:41:04.333Z,2676
2018-06-01T04:42:04.333Z,2760
2018-06-01T04:43:04.336Z,2936
2018-06-01T04:44:04.085Z,3200
2018-06-01T04:45:04.327Z,3548
2018-06-01T04:46:04.584Z,3836
2018-06-01T04:47:04.326Z,3832
2018-06-01T04:48:04.064Z,3628
2018-06-01T04:49:04.574Z,3456
2018-06-01T04:50:04.327Z,3332
2018-06-01T04:51:04.313Z,3348
2018-06-01T04:52:04.305Z,3556
2018-06-01T04:53:04.054Z,3680
2018-06-01T04:54:04.310Z,3568
2018-06-01T04:55:04.063Z,3252
2018-06-01T04:56:04.062Z,3116
2018-06-01T04:57:04.307Z,3148
2018-06-01T04:58:04.040Z,3248
2018-06-01T04:59:04.047Z,3140
2018-06-01T05:00:04.555Z,2840
2018-06-01T05:01:04.042Z,2444
2018-06-01T05:02:04.294Z,2136
2018-06-01T05:03:04.034Z,1964
2018-06-01T05:04:04.562Z,1940
2018-06-01T05:05:04.546Z,2060
2018-06-01T05:06:04.285Z,2216
2018-06-01T05:07:04.536Z,2408
2018-06-01T05:08:04.289Z,2628
2018-06-01T05:09:04.284Z,2876
2018-06-01T05:10:04.276Z,3164
2018-06-01T05:11:04.270Z,3392
2018-06-01T05:12:04.531Z,3536
2018-06-01T05:13:04.274Z,3588
2018-06-01T05:14:04.554Z,3548
2018-06-01T05:15:04.544Z,3252
2018-06-01T05:16:04.527Z,2736
2018-06-01T05:17:04.265Z,2192
2018-06-01T05:18:04.265Z,1764
2018-06-01T05:19:04.265Z,1480
2018-06-01T05:20:04.533Z,1424
2018-06-01T05:21:04.250Z,1500
2018-06-01T05:22:03.992Z,1516
2018-06-01T05:23:04.245Z,1480
2018-06-01T05:24:04.517Z,1408
2018-06-01T05:25:04.246Z,1320
2018-06-01T05:26:04.248Z,1276
2018-06-01T05:27:03.978Z,1332
2018-06-01T05:28:03.990Z,1488
2018-06-01T05:29:04.497Z,1704
2018-06-01T05:30:03.977Z,1828
2018-06-01T05:31:04.492Z,1880
2018-06-01T05:32:04.235Z,1916
2018-06-01T05:33:04.227Z,1980
2018-06-01T05:34:04.483Z,2080
2018-06-01T05:35:04.492Z,2136
2018-06-01T05:36:04.224Z,2180
2018-06-01T05:37:03.959Z,2228
2018-06-01T05:38:03.958Z,2204
2018-06-01T05:39:03.960Z,2080
2018-06-01T05:40:04.212Z,1924
2018-06-01T05:41:04.217Z,1520
2018-06-01T05:42:04.495Z,1492
2018-06-01T05:43:04.222Z,1652
2018-06-01T05:44:04.211Z,1868
2018-06-01T05:45:04.707Z,2208
2018-06-01T05:46:04.198Z,2480
2018-06-01T05:47:04.199Z,2228
2018-06-01T05:48:03.932Z,1452
2018-06-01T05:49:03.677Z,960
2018-06-01T05:50:03.949Z,728
2018-06-01T05:51:04.188Z,640
2018-06-01T05:52:04.185Z,620
2018-06-01T05:53:04.188Z,628
2018-06-01T05:54:04.194Z,628
2018-06-01T05:55:03.927Z,588
2018-06-01T05:56:03.916Z,528
2018-06-01T05:57:04.192Z,488
2018-06-01T05:58:03.915Z,464
2018-06-01T05:59:04.169Z,472
2018-06-01T06:00:04.173Z,528
2018-06-01T06:01:04.158Z,604
2018-06-01T06:02:04.164Z,676
2018-06-01T06:03:04.180Z,728
2018-06-01T06:04:04.160Z,708
2018-06-01T06:05:03.892Z,628
2018-06-01T06:06:04.405Z,556
2018-06-01T06:07:04.186Z,520
2018-06-01T06:08:04.410Z,512
2018-06-01T06:09:03.889Z,532
2018-06-01T06:10:04.152Z,576
2018-06-01T06:11:04.392Z,652
2018-06-01T06:12:04.397Z,756
2018-06-01T06:13:03.926Z,968
2018-06-01T06:14:04.346Z,1328
2018-06-01T06:15:03.874Z,1732
2018-06-01T06:16:04.123Z,2120
2018-06-01T06:17:04.119Z,1948
2018-06-01T06:18:04.392Z,1672
2018-06-01T06:19:04.114Z,1540
2018-06-01T06:20:04.125Z,1648
2018-06-01T06:21:04.373Z,1972
2018-06-01T06:22:04.347Z,2404
2018-06-01T06:23:04.102Z,2952
2018-06-01T06:24:04.373Z,3424
2018-06-01T06:25:04.390Z,3772
2018-06-01T06:26:03.842Z,4028
2018-06-01T06:27:03.836Z,4220
2018-06-01T06:28:03.830Z,4436
2018-06-01T06:29:04.351Z,4524
2018-06-01T06:30:04.089Z,4388
2018-06-01T06:31:04.099Z,4232
2018-06-01T06:32:04.083Z,4220
2018-06-01T06:33:04.344Z,4308
2018-06-01T06:34:04.080Z,4428
2018-06-01T06:35:04.082Z,4612
2018-06-01T06:36:04.328Z,4888
2018-06-01T06:37:04.069Z,4992
2018-06-01T06:38:04.325Z,4872
2018-06-01T06:39:03.808Z,4784
2018-06-01T06:40:04.321Z,4832
2018-06-01T06:41:04.323Z,5140
2018-06-01T06:42:04.143Z,5556
2018-06-01T06:43:03.804Z,6060
2018-06-01T06:44:04.047Z,6312
2018-06-01T06:45:04.315Z,6376
2018-06-01T06:46:04.051Z,6492
2018-06-01T06:47:03.786Z,7104
2018-06-01T06:48:03.791Z,8008
2018-06-01T06:49:04.041Z,8660
2018-06-01T06:50:04.056Z,9040
2018-06-01T06:51:03.800Z,9620
2018-06-01T06:52:04.516Z,10596
2018-06-01T06:53:04.046Z,11012
2018-06-01T06:54:04.038Z,10972
2018-06-01T06:55:03.772Z,12924
2018-06-01T06:56:03.769Z,14092
2018-06-01T06:57:04.301Z,13788
2018-06-01T06:58:03.782Z,13672
2018-06-01T06:59:04.026Z,11652
2018-06-01T07:00:03.786Z,12792
2018-06-01T07:01:03.760Z,10128
2018-06-01T07:02:04.283Z,9628
2018-06-01T07:03:03.762Z,10660
2018-06-01T07:04:04.020Z,13364
2018-06-01T07:05:04.507Z,17696
2018-06-01T07:06:04.293Z,12960
2018-06-01T07:07:04.284Z,11692
2018-06-01T07:08:03.764Z,10880
2018-06-01T07:09:04.011Z,9884
2018-06-01T07:10:04.277Z,11408
2018-06-01T07:11:04.014Z,10788
2018-06-01T07:12:04.016Z,12536
2018-06-01T07:13:04.019Z,13220
2018-06-01T07:14:04.285Z,13964
2018-06-01T07:15:04.021Z,14908
2018-06-01T07:16:04.511Z,19904
2018-06-01T07:17:04.019Z,17696
2018-06-01T07:18:04.019Z,26880
2018-06-01T07:19:04.020Z,28992
2018-06-01T07:20:04.013Z,28160
2018-06-01T07:21:04.480Z,26432
2018-06-01T07:22:04.013Z,27232
2018-06-01T07:23:04.018Z,27616
2018-06-01T07:24:04.018Z,26336
2018-06-01T07:25:04.026Z,25120
2018-06-01T07:26:04.280Z,15336
2018-06-01T07:27:04.276Z,13868
2018-06-01T07:28:04.289Z,13444
2018-06-01T07:29:03.766Z,14192
2018-06-01T07:30:04.286Z,12544
2018-06-01T07:31:04.019Z,11512
2018-06-01T07:32:04.047Z,10388
2018-06-01T07:33:04.294Z,9624
2018-06-01T07:34:04.047Z,9348
2018-06-01T07:35:03.776Z,9368
2018-06-01T07:36:04.029Z,9584
2018-06-01T07:37:04.322Z,9824
2018-06-01T07:38:04.300Z,9924
2018-06-01T07:39:03.773Z,10076
2018-06-01T07:40:04.033Z,10336
2018-06-01T07:41:04.039Z,10868
2018-06-01T07:42:04.036Z,28992
2018-06-01T07:43:04.043Z,22944
2018-06-01T07:44:04.053Z,17856
2018-06-01T07:45:04.042Z,26432
2018-06-01T07:46:03.789Z,22880
2018-06-01T07:47:04.269Z,24192
2018-06-01T07:48:04.283Z,23616
2018-06-01T07:49:04.048Z,24480
2018-06-01T07:50:03.529Z,23040
2018-06-01T07:51:04.090Z,21088
2018-06-01T07:52:04.313Z,20992
2018-06-01T07:53:04.052Z,21952
2018-06-01T07:54:04.058Z,22432
2018-06-01T07:55:03.801Z,21696
2018-06-01T07:56:04.080Z,20832
2018-06-01T07:57:04.288Z,21312
2018-06-01T07:58:04.329Z,21312
2018-06-01T07:59:04.347Z,20288
2018-06-01T08:00:04.358Z,19488
2018-06-01T08:01:04.103Z,19072
2018-06-01T08:02:03.845Z,17632
2018-06-01T08:03:03.830Z,16372
2018-06-01T08:04:04.096Z,15896
2018-06-01T08:05:03.833Z,15860
2018-06-01T08:06:04.091Z,16068
2018-06-01T08:07:04.359Z,16544
2018-06-01T08:08:04.356Z,16928
2018-06-01T08:09:04.115Z,17024
2018-06-01T08:10:04.400Z,16864
2018-06-01T08:11:03.846Z,17152
2018-06-01T08:12:04.113Z,18080
2018-06-01T08:13:04.394Z,18368
2018-06-01T08:14:04.120Z,18304
2018-06-01T08:15:03.874Z,17824
2018-06-01T08:16:04.129Z,17600
2018-06-01T08:17:04.407Z,17664
2018-06-01T08:18:04.394Z,17440
2018-06-01T08:19:04.148Z,17184
2018-06-01T08:20:04.139Z,16928
2018-06-01T08:21:04.428Z,17152
2018-06-01T08:22:04.148Z,17280
2018-06-01T08:23:04.412Z,17504
2018-06-01T08:24:04.435Z,17376
2018-06-01T08:25:04.422Z,17184
2018-06-01T08:26:03.905Z,16576
2018-06-01T08:27:03.653Z,16220
2018-06-01T08:28:03.904Z,15976
2018-06-01T08:29:04.164Z,15500
2018-06-01T08:30:03.906Z,14896
2018-06-01T08:31:04.190Z,14612
2018-06-01T08:32:04.179Z,14412
2018-06-01T08:33:04.434Z,14752
2018-06-01T08:34:04.187Z,15356
2018-06-01T08:35:04.179Z,15748
2018-06-01T08:36:04.187Z,15712
2018-06-01T08:37:04.187Z,14684
2018-06-01T08:38:03.952Z,14812
2018-06-01T08:39:04.455Z,14544
2018-06-01T08:40:04.463Z,15312
2018-06-01T08:41:04.222Z,14776
2018-06-01T08:42:04.472Z,13608
2018-06-01T08:43:04.469Z,12212
2018-06-01T08:44:04.209Z,11412
2018-06-01T08:45:04.265Z,10900
2018-06-01T08:46:03.961Z,10404
2018-06-01T08:47:04.477Z,9852
2018-06-01T08:48:04.219Z,9012
2018-06-01T08:49:04.232Z,8428
2018-06-01T08:50:03.713Z,8604
2018-06-01T08:51:04.226Z,9228
2018-06-01T08:52:04.489Z,10156
2018-06-01T08:53:04.462Z,11384
2018-06-01T08:54:04.002Z,12776
2018-06-01T08:55:04.496Z,12788
2018-06-01T08:56:04.574Z,12732
2018-06-01T08:57:03.988Z,11820
2018-06-01T08:58:04.257Z,10824
2018-06-01T08:59:04.619Z,10052
2018-06-01T09:00:04.265Z,9560
2018-06-01T09:01:04.002Z,9152
2018-06-01T09:02:04.539Z,9428
2018-06-01T09:03:04.003Z,10256
2018-06-01T09:04:04.271Z,10976
2018-06-01T09:05:04.285Z,11304
2018-06-01T09:06:04.017Z,10940
2018-06-01T09:07:04.535Z,10212
2018-06-01T09:08:04.271Z,9700
2018-06-01T09:09:04.274Z,9256
2018-06-01T09:10:04.727Z,8788
2018-06-01T09:11:04.504Z,8344
2018-06-01T09:12:04.286Z,7948
2018-06-01T09:13:04.546Z,7668
2018-06-01T09:14:04.041Z,7472
2018-06-01T09:15:04.292Z,7356
2018-06-01T09:16:04.067Z,7256
2018-06-01T09:17:04.553Z,7164
2018-06-01T09:18:04.343Z,7084
2018-06-01T09:19:04.063Z,7096
2018-06-01T09:20:04.567Z,7176
2018-06-01T09:21:04.324Z,7152
2018-06-01T09:22:04.311Z,7208
2018-06-01T09:23:04.327Z,7284
2018-06-01T09:24:04.054Z,7344
2018-06-01T09:25:04.574Z,7464
2018-06-01T09:26:04.609Z,7468
2018-06-01T09:27:04.582Z,7404
2018-06-01T09:28:03.815Z,7240
2018-06-01T09:29:04.600Z,7180
2018-06-01T09:30:04.436Z,7120
2018-06-01T09:31:04.595Z,7328
2018-06-01T09:32:04.342Z,7748
2018-06-01T09:33:04.092Z,8484
2018-06-01T09:34:04.352Z,9080
2018-06-01T09:35:04.310Z,9540
2018-06-01T09:36:04.102Z,9880
2018-06-01T09:37:04.631Z,10192
2018-06-01T09:38:04.653Z,10500
2018-06-01T09:39:04.629Z,11108
2018-06-01T09:40:04.365Z,11632
2018-06-01T09:41:04.107Z,12056
2018-06-01T09:42:04.365Z,12324
2018-06-01T09:43:04.636Z,12752
2018-06-01T09:44:04.117Z,13576
2018-06-01T09:45:04.194Z,13812
2018-06-01T09:46:04.375Z,14380
2018-06-01T09:47:04.632Z,14812
2018-06-01T09:48:04.125Z,14996
2018-06-01T09:49:04.645Z,14000
2018-06-01T09:50:04.597Z,13168
2018-06-01T09:51:04.386Z,12400
2018-06-01T09:52:04.402Z,11888
2018-06-01T09:53:04.142Z,11880
2018-06-01T09:54:04.405Z,12272
2018-06-01T09:55:04.404Z,13028
2018-06-01T09:56:04.717Z,13676
2018-06-01T09:57:04.405Z,14160
2018-06-01T09:58:04.678Z,14540
2018-06-01T09:59:04.158Z,14888
2018-06-01T10:00:04.416Z,15240
2018-06-01T10:01:04.417Z,15316
2018-06-01T10:02:04.170Z,15432
2018-06-01T10:03:04.713Z,15800
2018-06-01T10:04:04.422Z,16000
2018-06-01T10:05:04.874Z,16160
2018-06-01T10:06:03.916Z,15928
2018-06-01T10:07:04.724Z,15784
2018-06-01T10:08:04.717Z,15492
2018-06-01T10:09:04.175Z,15016
2018-06-01T10:10:04.188Z,14312
2018-06-01T10:11:04.443Z,13356
2018-06-01T10:12:04.451Z,12780
2018-06-01T10:13:04.720Z,12972
2018-06-01T10:14:04.718Z,13012
2018-06-01T10:15:04.213Z,12672
2018-06-01T10:16:04.463Z,12048
2018-06-01T10:17:04.220Z,11472
2018-06-01T10:18:04.470Z,11004
2018-06-01T10:19:04.377Z,10532
2018-06-01T10:20:04.745Z,9940
2018-06-01T10:21:04.751Z,9624
2018-06-01T10:22:04.964Z,9404
2018-06-01T10:23:04.225Z,9116
2018-06-01T10:24:04.766Z,8320
2018-06-01T10:25:03.982Z,7996
2018-06-01T10:26:04.761Z,7656
2018-06-01T10:27:04.515Z,7156
2018-06-01T10:28:04.505Z,6776
2018-06-01T10:29:04.772Z,6552
2018-06-01T10:30:04.776Z,6428
2018-06-01T10:31:04.004Z,6340
2018-06-01T10:32:04.800Z,6296
2018-06-01T10:33:04.653Z,6160
2018-06-01T10:34:05.026Z,6056
2018-06-01T10:35:04.797Z,5992
2018-06-01T10:36:04.534Z,5920
2018-06-01T10:37:04.832Z,5844
2018-06-01T10:38:04.293Z,5956
2018-06-01T10:39:04.545Z,6228
2018-06-01T10:40:04.569Z,5816
2018-06-01T10:41:04.772Z,5720
2018-06-01T10:42:04.037Z,5636
2018-06-01T10:43:04.820Z,5568
2018-06-01T10:44:04.790Z,5536
2018-06-01T10:45:04.829Z,5532
2018-06-01T10:46:04.840Z,5572
2018-06-01T10:47:04.832Z,6780
2018-06-01T10:48:04.832Z,6020
2018-06-01T10:49:04.061Z,5600
2018-06-01T10:50:04.605Z,5484
2018-06-01T10:51:04.326Z,5800
2018-06-01T10:52:04.589Z,6160
2018-06-01T10:53:04.339Z,6212
2018-06-01T10:54:04.341Z,6824
2018-06-01T10:55:04.620Z,5864
2018-06-01T10:56:04.862Z,5484
2018-06-01T10:57:04.603Z,5456
2018-06-01T10:58:04.621Z,5492
2018-06-01T10:59:04.870Z,5516
2018-06-01T11:00:04.618Z,5652
2018-06-01T11:01:04.626Z,6036
2018-06-01T11:02:04.360Z,6740
2018-06-01T11:03:04.616Z,5996
2018-06-01T11:04:04.631Z,5800
2018-06-01T11:05:04.908Z,5696
2018-06-01T11:06:04.635Z,5716
2018-06-01T11:07:04.637Z,5892
2018-06-01T11:08:04.640Z,6560
2018-06-01T11:09:04.635Z,5860
2018-06-01T11:10:04.384Z,5524
2018-06-01T11:11:04.907Z,5404
2018-06-01T11:12:04.659Z,5268
2018-06-01T11:13:04.675Z,5092
2018-06-01T11:14:04.653Z,5164
2018-06-01T11:15:04.912Z,5604
2018-06-01T11:16:04.914Z,6140
2018-06-01T11:17:04.921Z,6788
2018-06-01T11:18:04.445Z,6864
2018-06-01T11:19:04.410Z,6796
2018-06-01T11:20:04.676Z,6756
2018-06-01T11:21:05.120Z,6984
2018-06-01T11:22:04.983Z,7004
2018-06-01T11:23:04.934Z,6988
2018-06-01T11:24:04.682Z,7108
2018-06-01T11:25:04.422Z,7340
2018-06-01T11:26:04.421Z,7748
2018-06-01T11:27:04.849Z,7892
2018-06-01T11:28:04.429Z,7972
2018-06-01T11:29:04.692Z,7912
2018-06-01T11:30:04.758Z,7320
2018-06-01T11:31:04.984Z,7200
2018-06-01T11:32:04.997Z,7612
2018-06-01T11:33:04.532Z,7704
2018-06-01T11:34:04.703Z,7032
2018-06-01T11:35:04.789Z,6680
2018-06-01T11:36:04.191Z,6488
2018-06-01T11:37:04.712Z,6128
2018-06-01T11:38:04.726Z,5396
2018-06-01T11:39:04.470Z,4676
2018-06-01T11:40:04.473Z,5096
2018-06-01T11:41:05.040Z,6324
2018-06-01T11:42:04.720Z,5208
2018-06-01T11:43:04.984Z,4556
2018-06-01T11:44:04.726Z,4916
2018-06-01T11:45:05.020Z,5072
2018-06-01T11:46:04.830Z,5528
2018-06-01T11:47:04.779Z,6056
2018-06-01T11:48:04.223Z,6628
2018-06-01T11:49:04.484Z,6864
2018-06-01T11:50:04.998Z,6600
2018-06-01T11:51:04.485Z,6348
2018-06-01T11:52:04.755Z,6548
2018-06-01T11:53:04.229Z,6916
2018-06-01T11:54:05.028Z,7784
2018-06-01T11:55:04.762Z,9928
2018-06-01T11:56:04.758Z,11608
2018-06-01T11:57:04.509Z,11708
2018-06-01T11:58:04.769Z,10156
2018-06-01T11:59:05.017Z,9284
2018-06-01T12:00:04.770Z,8244
2018-06-01T12:01:04.768Z,8404
2018-06-01T12:02:04.867Z,10844
2018-06-01T12:03:04.792Z,12008
2018-06-01T12:04:04.787Z,9300
2018-06-01T12:05:05.305Z,10484
2018-06-01T12:06:04.784Z,12400
2018-06-01T12:07:05.052Z,11376
2018-06-01T12:08:04.795Z,8712
2018-06-01T12:09:04.799Z,7540
2018-06-01T12:10:05.017Z,8316
2018-06-01T12:11:05.558Z,7804
2018-06-01T12:12:05.070Z,7384
2018-06-01T12:13:04.289Z,7300
2018-06-01T12:14:04.814Z,6880
2018-06-01T12:15:05.070Z,6272
2018-06-01T12:16:04.567Z,6948
2018-06-01T12:17:04.843Z,6672
2018-06-01T12:18:04.833Z,7328
2018-06-01T12:19:05.080Z,9320
2018-06-01T12:20:04.829Z,9536
2018-06-01T12:21:05.095Z,8156
2018-06-01T12:22:05.112Z,8296
2018-06-01T12:23:04.841Z,7368
2018-06-01T12:24:04.588Z,7332
2018-06-01T12:25:04.844Z,7904
2018-06-01T12:26:04.892Z,7708
2018-06-01T12:27:04.858Z,7096
2018-06-01T12:28:05.117Z,9312
2018-06-01T12:29:05.151Z,11764
2018-06-01T12:30:04.601Z,12456
2018-06-01T12:31:04.353Z,11636
2018-06-01T12:32:05.141Z,11652
2018-06-01T12:33:04.888Z,10140
2018-06-01T12:34:04.623Z,9208
2018-06-01T12:35:05.160Z,9508
2018-06-01T12:36:04.893Z,9872
2018-06-01T12:37:04.890Z,11436
2018-06-01T12:38:04.896Z,10656
2018-06-01T12:39:04.897Z,10016
2018-06-01T12:40:04.663Z,10504
2018-06-01T12:41:04.380Z,9952
2018-06-01T12:42:04.414Z,9816
2018-06-01T12:43:04.910Z,10136
2018-06-01T12:44:04.909Z,11020
2018-06-01T12:45:05.164Z,11292
2018-06-01T12:46:04.935Z,10712
2018-06-01T12:47:04.916Z,11500
2018-06-01T12:48:04.932Z,11728
2018-06-01T12:49:04.934Z,11452
2018-06-01T12:50:05.195Z,11544
2018-06-01T12:51:04.949Z,11240
2018-06-01T12:52:04.948Z,11096
2018-06-01T12:53:04.428Z,10340
2018-06-01T12:54:05.031Z,9528
2018-06-01T12:55:04.683Z,9396
2018-06-01T12:56:04.687Z,10088
2018-06-01T12:57:04.954Z,10676
2018-06-01T12:58:04.963Z,11292
2018-06-01T12:59:04.694Z,11824
2018-06-01T13:00:04.976Z,12264
2018-06-01T13:01:05.216Z,12772
2018-06-01T13:02:05.237Z,12972
2018-06-01T13:03:04.973Z,13036
2018-06-01T13:04:05.244Z,13076
2018-06-01T13:05:05.243Z,13120
2018-06-01T13:06:04.723Z,12972
2018-06-01T13:07:04.828Z,12372
2018-06-01T13:08:04.740Z,11620
2018-06-01T13:09:05.189Z,11312
2018-06-01T13:10:04.994Z,10724
2018-06-01T13:11:05.262Z,9956
2018-06-01T13:12:05.273Z,10500
2018-06-01T13:13:05.007Z,11624
2018-06-01T13:14:05.312Z,12316
2018-06-01T13:15:05.493Z,12516
2018-06-01T13:16:04.753Z,12632
2018-06-01T13:17:05.025Z,12856
2018-06-01T13:18:05.294Z,12904
2018-06-01T13:19:04.767Z,12920
2018-06-01T13:20:04.768Z,13000
2018-06-01T13:21:05.308Z,13120
2018-06-01T13:22:05.026Z,12468
2018-06-01T13:23:04.777Z,11648
2018-06-01T13:24:05.040Z,10384
2018-06-01T13:25:05.034Z,9480
2018-06-01T13:26:04.789Z,9216
2018-06-01T13:27:05.045Z,9332
2018-06-01T13:28:05.042Z,9280
2018-06-01T13:29:05.317Z,8984
2018-06-01T13:30:04.903Z,8944
2018-06-01T13:31:05.062Z,9288